Time;durP1;ratioP1;P1;durP2;ratioP2;P2;SDS_P1;SDS_P2;PMS_P1;PMS_P2;Temp;Humidity;BMP_temperature;BMP_pressure;BME280_temperature;BME280_humidity;BME280_pressure;Samples;Min_cycle;Max_cycle;Signal;HPM_P1;HPM_P2
2021/11/30 00:04:38;;;;;;;5.18;2.78;;;;;;;5.19;96.17;101017.31;10540784;28;20063;-75
2021/11/30 00:14:39;;;;;;;6.50;2.90;;;;;;;5.32;97.63;100998.06;10546861;28;20064;-75
2021/11/30 00:19:40;;;;;;;3.33;3.03;;;;;;;5.27;98.06;100974.41;10545207;28;20039;-75
2021/11/30 00:24:41;;;;;;;3.70;3.00;;;;;;;5.33;98.41;100976.44;10546664;28;20404;-76
2021/11/30 00:29:41;;;;;;;14.15;3.78;;;;;;;5.35;99.01;100968.22;10545620;28;20031;-75
2021/11/30 00:34:41;;;;;;;4.60;2.78;;;;;;;5.38;99.29;100949.09;10545749;28;20476;-76
2021/11/30 00:39:42;;;;;;;11.77;3.67;;;;;;;5.44;99.98;100943.09;10561380;28;20123;-74
2021/11/30 00:44:44;;;;;;;9.93;3.22;;;;;;;5.52;100.00;100923.44;10527909;28;20039;-74
2021/11/30 00:49:45;;;;;;;11.02;4.15;;;;;;;5.57;100.00;100932.69;10545874;28;20047;-73
2021/11/30 00:54:47;;;;;;;11.95;4.57;;;;;;;5.65;100.00;100925.66;10544816;28;20032;-73
2021/11/30 00:59:47;;;;;;;12.55;5.30;;;;;;;5.71;100.00;100906.19;10544697;28;20185;-74
2021/11/30 01:04:48;;;;;;;8.40;3.40;;;;;;;5.78;100.00;100904.56;10544514;28;20035;-75
2021/11/30 01:09:48;;;;;;;10.85;4.72;;;;;;;5.81;100.00;100896.16;10543690;28;20047;-74
2021/11/30 01:14:48;;;;;;;3.90;3.10;;;;;;;5.83;100.00;100878.00;10545579;28;20036;-75
2021/11/30 01:19:49;;;;;;;4.78;4.32;;;;;;;5.87;100.00;100873.13;10541958;28;20402;-75
2021/11/30 01:24:49;;;;;;;6.30;5.03;;;;;;;5.93;100.00;100877.88;10525287;28;20044;-74
2021/11/30 01:29:49;;;;;;;13.63;6.35;;;;;;;6.10;100.00;100876.88;10542914;28;20166;-75
2021/11/30 01:34:50;;;;;;;13.43;6.97;;;;;;;6.19;100.00;100873.19;10542155;28;20036;-74
2021/11/30 01:39:50;;;;;;;11.90;6.47;;;;;;;6.34;100.00;100862.53;10543829;28;20547;-75
2021/11/30 01:44:55;;;;;;;7.93;4.43;;;;;;;6.47;100.00;100878.16;10542250;28;20451;-74
2021/11/30 01:49:59;;;;;;;6.13;3.53;;;;;;;6.62;100.00;100875.59;10526098;28;20059;-75
2021/11/30 01:55:00;;;;;;;10.98;3.60;;;;;;;6.70;100.00;100860.28;10541958;28;20055;-75
2021/11/30 02:00:00;;;;;;;5.78;2.78;;;;;;;6.79;100.00;100841.41;10542292;28;20086;-75
2021/11/30 02:05:00;;;;;;;6.70;3.53;;;;;;;6.87;100.00;100844.06;10542736;28;20040;-76
2021/11/30 02:10:01;;;;;;;4.85;3.33;;;;;;;6.95;100.00;100835.94;10542563;28;20036;-75
2021/11/30 02:15:02;;;;;;;6.68;4.40;;;;;;;6.98;100.00;100838.28;10541751;28;20455;-75
2021/11/30 02:20:04;;;;;;;16.85;5.05;;;;;;;7.07;100.00;100828.31;10542902;28;20075;-75
2021/11/30 02:25:05;;;;;;;5.78;4.05;;;;;;;7.13;100.00;100806.91;10541466;28;20044;-76
2021/11/30 02:30:05;;;;;;;4.45;4.00;;;;;;;7.15;100.00;100814.84;10541243;28;20032;-75
2021/11/30 02:35:06;;;;;;;4.75;3.67;;;;;;;7.22;100.00;100810.41;10539054;28;20032;-75
2021/11/30 02:40:08;;;;;;;13.68;4.45;;;;;;;7.29;100.00;100805.13;10542060;28;20056;-75
2021/11/30 02:45:09;;;;;;;5.07;3.58;;;;;;;7.30;100.00;100806.81;10540105;28;20032;-75
2021/11/30 02:50:09;;;;;;;13.77;4.22;;;;;;;7.32;100.00;100772.47;10542092;28;20044;-74
2021/11/30 02:55:10;;;;;;;2.90;2.70;;;;;;;7.39;100.00;100784.19;10540469;28;20468;-75
2021/11/30 03:00:10;;;;;;;9.43;4.43;;;;;;;7.40;100.00;100780.47;10539714;28;20036;-74
2021/11/30 03:05:11;;;;;;;9.15;4.00;;;;;;;7.43;100.00;100780.09;10540852;28;20037;-74
2021/11/30 03:10:16;;;;;;;8.23;3.47;;;;;;;7.46;100.00;100763.59;10540319;28;20098;-76
2021/11/30 03:15:18;;;;;;;13.52;4.55;;;;;;;7.51;100.00;100754.97;10541261;28;20043;-75
2021/11/30 03:20:19;;;;;;;5.38;4.53;;;;;;;7.54;100.00;100746.53;10540069;28;20085;-75
2021/11/30 03:25:19;;;;;;;11.93;3.40;;;;;;;7.52;100.00;100752.09;10540028;28;20028;-74
2021/11/30 03:30:22;;;;;;;8.45;3.83;;;;;;;7.58;100.00;100751.38;10540912;28;20436;-75
2021/11/30 03:35:23;;;;;;;3.95;3.08;;;;;;;7.58;100.00;100751.38;10538856;28;20020;-75
2021/11/30 03:40:23;;;;;;;8.82;5.35;;;;;;;7.63;100.00;100743.59;10557952;28;20024;-75
2021/11/30 03:45:24;;;;;;;13.65;4.85;;;;;;;7.64;100.00;100728.25;10547655;28;20063;-75
2021/11/30 03:50:24;;;;;;;13.35;3.78;;;;;;;7.68;100.00;100725.00;10548475;28;20052;-75
2021/11/30 03:55:25;;;;;;;7.22;4.40;;;;;;;7.77;100.00;100733.00;10546721;28;20024;-74
2021/11/30 04:00:25;;;;;;;7.68;5.05;;;;;;;7.80;100.00;100724.56;10547191;28;20396;-74
2021/11/30 04:05:25;;;;;;;9.85;3.88;;;;;;;7.78;100.00;100732.81;10529548;28;20042;-74
2021/11/30 04:10:26;;;;;;;10.60;4.95;;;;;;;7.86;100.00;100734.59;10546158;28;20498;-75
2021/11/30 04:15:26;;;;;;;16.88;5.10;;;;;;;7.91;100.00;100726.78;10546926;28;20028;-75
2021/11/30 04:20:27;;;;;;;13.57;6.97;;;;;;;7.88;100.00;100730.72;10545167;28;20650;-75
2021/11/30 04:25:27;;;;;;;24.02;6.75;;;;;;;7.95;100.00;100722.72;10546096;28;20119;-74
2021/11/30 04:30:28;;;;;;;13.20;6.45;;;;;;;8.02;100.00;100715.56;10546015;28;20079;-75
2021/11/30 04:35:28;;;;;;;17.65;6.57;;;;;;;8.03;100.00;100714.53;10544340;28;20029;-74
2021/11/30 04:40:28;;;;;;;21.58;6.78;;;;;;;8.07;100.00;100718.56;10544195;28;20040;-73
2021/11/30 04:45:38;;;;;;;6.75;6.15;;;;;;;8.10;100.00;100699.31;10545595;28;20028;-74
2021/11/30 04:50:42;;;;;;;8.05;5.00;;;;;;;8.11;100.00;100689.34;10544629;28;20360;-74
2021/11/30 04:55:43;;;;;;;21.38;6.35;;;;;;;8.17;100.00;100694.00;10544564;28;20028;-76
2021/11/30 05:00:43;;;;;;;9.30;6.55;;;;;;;8.20;100.00;100676.56;10544680;28;20040;-73
2021/11/30 05:05:44;;;;;;;15.40;6.78;;;;;;;8.20;100.00;100673.88;10544246;28;20474;-76
2021/11/30 05:10:44;;;;;;;10.07;6.75;;;;;;;8.24;100.00;100680.59;10543136;28;20039;-74
2021/11/30 05:15:45;;;;;;;20.42;8.50;;;;;;;8.26;100.00;100689.31;10544813;28;20057;-74
2021/11/30 05:20:45;;;;;;;9.57;6.43;;;;;;;8.30;100.00;100680.69;10544138;28;20055;-74
2021/11/30 05:25:46;;;;;;;15.52;6.68;;;;;;;8.30;100.00;100690.63;10542504;28;20051;-74
2021/11/30 05:30:46;;;;;;;15.00;5.47;;;;;;;8.40;100.00;100684.97;10542669;28;20058;-73
2021/11/30 05:35:47;;;;;;;12.15;6.15;;;;;;;8.36;100.00;100700.69;10543028;28;20031;-74
2021/11/30 05:40:47;;;;;;;11.55;6.75;;;;;;;8.44;100.00;100692.50;10543151;28;20040;-76
2021/11/30 05:45:48;;;;;;;12.38;6.95;;;;;;;8.42;100.00;100699.94;10548296;28;20024;-76
2021/11/30 05:50:48;;;;;;;14.82;7.15;;;;;;;8.50;100.00;100690.91;10543593;28;20079;-76
2021/11/30 05:55:55;;;;;;;23.92;8.15;;;;;;;8.50;100.00;100691.75;10543002;28;20029;-77
2021/11/30 06:01:06;;;;;;;24.25;8.02;;;;;;;8.53;100.00;100704.84;10548923;28;20032;-75
2021/11/30 06:06:06;;;;;;;21.65;8.85;;;;;;;8.59;100.00;100696.00;10544975;28;20486;-71
2021/11/30 06:11:07;;;;;;;20.15;7.28;;;;;;;8.56;100.00;100704.47;10541390;28;20070;-72
2021/11/30 06:16:07;;;;;;;15.85;7.40;;;;;;;8.65;100.00;100696.25;10524210;28;20032;-71
2021/11/30 06:21:09;;;;;;;16.50;8.02;;;;;;;8.67;100.00;100694.22;10539491;28;20064;-71
2021/11/30 06:26:10;;;;;;;26.83;9.25;;;;;;;8.71;100.00;100690.09;10539797;28;20523;-71
2021/11/30 06:31:11;;;;;;;18.58;6.78;;;;;;;8.75;100.00;100694.94;10539669;28;20024;-71
2021/11/30 06:36:11;;;;;;;16.10;5.82;;;;;;;8.83;100.00;100693.97;10539850;28;20044;-71
2021/11/30 06:41:12;;;;;;;19.13;7.13;;;;;;;8.84;100.00;100707.31;10539037;28;20088;-71
2021/11/30 06:46:12;;;;;;;11.13;5.68;;;;;;;8.91;100.00;100715.47;10539929;28;20032;-71
2021/11/30 06:51:14;;;;;;;14.25;6.13;;;;;;;8.97;100.00;100703.09;10541687;28;20540;-71
2021/11/30 06:56:14;;;;;;;11.57;6.32;;;;;;;8.99;100.00;100701.84;10540874;28;20035;-71
2021/11/30 07:01:15;;;;;;;21.83;6.38;;;;;;;8.97;100.00;100714.72;10538088;28;20388;-71
2021/11/30 07:11:34;;;;;;;12.07;6.78;;;;;;;9.06;100.00;100713.56;10538864;28;20043;-71
2021/11/30 07:16:34;;;;;;;11.15;4.30;;;;;;;9.03;100.00;100705.84;10543023;28;20387;-71
2021/11/30 07:21:34;;;;;;;16.70;5.20;;;;;;;9.08;100.00;100705.25;10548241;28;20035;-71
2021/11/30 07:26:35;;;;;;;11.75;6.57;;;;;;;9.08;100.00;100706.09;10547608;28;20036;-71
2021/11/30 07:31:36;;;;;;;6.57;5.07;;;;;;;9.04;100.00;100707.50;10546922;28;20445;-73
2021/11/30 07:36:37;;;;;;;12.27;5.35;;;;;;;9.05;100.00;100721.84;10530816;28;20035;-71
2021/11/30 07:41:37;;;;;;;24.65;7.60;;;;;;;9.08;100.00;100733.09;10550643;28;20044;-70
2021/11/30 07:46:38;;;;;;;16.65;5.50;;;;;;;9.11;100.00;100731.06;10550867;28;20043;-71
2021/11/30 07:51:39;;;;;;;10.50;5.80;;;;;;;9.14;100.00;100731.50;10546216;28;20441;-72
2021/11/30 07:56:40;;;;;;;19.42;5.50;;;;;;;9.19;100.00;100722.81;10546236;28;20127;-71
2021/11/30 08:01:40;;;;;;;8.20;5.90;;;;;;;9.21;100.00;100743.22;10545873;28;20036;-71
2021/11/30 08:06:41;;;;;;;20.98;5.80;;;;;;;9.23;100.00;100734.91;10545588;28;20040;-70
2021/11/30 08:11:41;;;;;;;18.27;5.72;;;;;;;9.21;100.00;100736.97;10545857;28;20040;-71
2021/11/30 08:16:45;;;;;;;10.23;5.00;;;;;;;9.27;100.00;100733.50;10547700;28;20467;-71
2021/11/30 08:21:45;;;;;;;24.25;6.32;;;;;;;9.28;100.00;100743.25;10544192;28;20040;-72
2021/11/30 08:26:45;;;;;;;19.05;7.63;;;;;;;9.28;100.00;100730.63;10545313;28;20043;-70
2021/11/30 08:31:46;;;;;;;11.73;4.15;;;;;;;9.34;100.00;100734.38;10544462;28;20108;-70
2021/11/30 08:36:46;;;;;;;11.45;6.15;;;;;;;9.38;100.00;100741.09;10544287;28;20040;-70
2021/11/30 08:41:47;;;;;;;16.77;4.82;;;;;;;9.40;100.00;100733.63;10544424;28;20064;-71
2021/11/30 08:46:47;;;;;;;16.52;5.63;;;;;;;9.40;100.00;100741.72;10543318;28;20517;-70
2021/11/30 08:51:48;;;;;;;17.70;5.88;;;;;;;9.44;100.00;100744.88;10546008;28;20060;-71
2021/11/30 08:56:49;;;;;;;10.77;4.85;;;;;;;9.46;100.00;100740.94;10544399;28;20040;-71
2021/11/30 09:01:49;;;;;;;8.02;4.28;;;;;;;9.43;100.00;100757.56;10543625;28;20036;-70
2021/11/30 09:06:50;;;;;;;20.80;6.60;;;;;;;9.49;100.00;100756.78;10544610;28;20052;-72
2021/11/30 09:11:50;;;;;;;31.42;6.15;;;;;;;9.53;100.00;100768.03;10544624;28;20379;-71
2021/11/30 09:16:51;;;;;;;6.68;4.82;;;;;;;9.60;100.00;100768.09;10543431;28;20032;-71
2021/11/30 09:21:52;;;;;;;24.85;5.03;;;;;;;9.69;100.00;100772.34;10543207;28;20043;-71
2021/11/30 09:26:52;;;;;;;13.13;4.72;;;;;;;9.73;100.00;100765.50;10541330;28;20038;-71
2021/11/30 09:31:53;;;;;;;15.70;5.32;;;;;;;9.76;100.00;100771.38;10544512;28;20047;-71
2021/11/30 09:36:54;;;;;;;19.70;4.53;;;;;;;9.73;100.00;100774.47;10541086;28;20032;-71
2021/11/30 09:41:55;;;;;;;20.05;5.28;;;;;;;9.70;100.00;100769.47;10524126;28;20036;-71
2021/11/30 09:46:56;;;;;;;20.15;5.10;;;;;;;9.67;100.00;100767.16;10542850;28;20055;-71
2021/11/30 09:51:56;;;;;;;9.77;4.75;;;;;;;9.83;100.00;100779.56;10541150;28;20063;-71
2021/11/30 09:56:57;;;;;;;21.98;5.55;;;;;;;9.96;100.00;100778.81;10545618;28;20040;-71
2021/11/30 10:01:57;;;;;;;5.15;4.30;;;;;;;9.96;100.00;100778.81;10543831;28;20036;-70
2021/11/30 10:06:58;;;;;;;9.80;3.95;;;;;;;9.93;100.00;100773.81;10541341;28;20035;-72
2021/11/30 10:12:08;;;;;;;15.82;5.65;;;;;;;9.92;100.00;100782.94;10540007;28;20384;-72
2021/11/30 10:17:19;;;;;;;3.30;2.97;;;;;;;9.95;100.00;100786.06;10543153;28;20035;-72
2021/11/30 10:22:52;;;;;;;10.05;4.53;;;;;;;9.92;100.00;100781.09;10540334;28;20024;-72
2021/11/30 10:28:00;;;;;;;10.02;4.57;;;;;;;9.81;100.00;100788.88;10541854;28;20464;-73
2021/11/30 10:33:05;;;;;;;4.53;3.28;;;;;;;9.76;100.00;100792.16;10541721;28;20057;-71
2021/11/30 10:38:06;;;;;;;14.70;5.18;;;;;;;9.79;100.00;100799.88;10538301;28;20524;-71
2021/11/30 10:43:08;;;;;;;9.90;4.35;;;;;;;9.78;100.00;100777.41;10538981;28;20119;-72
2021/11/30 10:48:16;;;;;;;12.45;4.15;;;;;;;9.84;100.00;100792.03;10539906;28;20024;-72
2021/11/30 10:53:26;;;;;;;14.63;3.63;;;;;;;9.91;100.00;100784.81;10540413;28;20039;-72
2021/11/30 10:58:29;;;;;;;9.60;5.00;;;;;;;9.85;100.00;100782.03;10539324;28;20043;-71
2021/11/30 11:03:30;;;;;;;16.20;5.25;;;;;;;9.84;100.00;100767.69;10537811;28;20032;-72
2021/11/30 11:08:31;;;;;;;13.18;5.18;;;;;;;9.86;100.00;100775.59;10538323;28;20035;-72
2021/11/30 11:13:34;;;;;;;18.90;4.97;;;;;;;9.78;100.00;100784.69;10521797;28;20093;-72
2021/11/30 11:18:39;;;;;;;8.93;3.67;;;;;;;9.80;100.00;100774.53;10538043;28;20042;-73
2021/11/30 11:23:43;;;;;;;12.05;5.13;;;;;;;9.89;100.00;100765.25;10538188;28;20071;-72
2021/11/30 11:28:44;;;;;;;14.07;5.10;;;;;;;9.94;100.00;100756.53;10521058;28;20028;-70
2021/11/30 11:33:44;;;;;;;28.65;6.00;;;;;;;10.01;100.00;100763.66;10538757;28;20517;-72
2021/11/30 11:38:45;;;;;;;31.67;5.97;;;;;;;10.02;100.00;100757.22;10521641;28;20036;-71
2021/11/30 11:43:46;;;;;;;15.13;6.35;;;;;;;10.05;100.00;100763.25;10538827;28;20036;-71
2021/11/30 11:48:48;;;;;;;12.48;4.45;;;;;;;10.08;100.00;100763.69;10537667;28;20051;-72
2021/11/30 11:53:54;;;;;;;13.00;4.38;;;;;;;9.99;100.00;100756.78;10537329;28;20143;-71
2021/11/30 11:59:19;;;;;;;12.20;4.60;;;;;;;10.02;100.00;100768.03;10520539;28;20111;-71
2021/11/30 12:04:19;;;;;;;16.08;5.93;;;;;;;10.03;100.00;100768.88;10527208;28;20090;-71
2021/11/30 12:09:33;;;;;;;9.32;4.15;;;;;;;9.99;100.00;100775.72;10547260;28;20212;-70
2021/11/30 12:14:36;;;;;;;8.40;3.58;;;;;;;10.04;100.00;100764.31;10548672;28;20028;-71
2021/11/30 12:19:47;;;;;;;21.60;5.57;;;;;;;10.02;100.00;100759.09;10547602;28;20044;-70
2021/11/30 12:24:49;;;;;;;13.25;6.20;;;;;;;10.07;100.00;100769.31;10544562;28;20085;-71
2021/11/30 12:29:50;;;;;;;15.77;4.40;;;;;;;10.07;100.00;100761.19;10546137;28;20032;-70
2021/11/30 12:34:55;;;;;;;13.00;4.97;;;;;;;10.07;100.00;100770.16;10543443;28;20032;-70
2021/11/30 12:40:12;;;;;;;18.33;5.00;;;;;;;10.04;100.00;100756.19;10543454;28;20067;-70
2021/11/30 12:45:22;;;;;;;12.95;4.45;;;;;;;9.94;100.00;100754.66;10542774;28;20562;-71
2021/11/30 12:50:26;;;;;;;8.18;4.15;;;;;;;9.96;100.00;100754.47;10543890;28;20075;-71
2021/11/30 12:55:27;;;;;;;10.57;4.50;;;;;;;9.92;100.00;100754.03;10543490;28;20040;-71
2021/11/30 13:00:29;;;;;;;8.18;4.10;;;;;;;9.91;100.00;100755.03;10526391;28;20181;-71
2021/11/30 13:05:30;;;;;;;6.15;4.40;;;;;;;9.89;100.00;100762.53;10542975;28;20043;-72
2021/11/30 13:10:33;;;;;;;7.65;3.88;;;;;;;9.87;100.00;100751.06;10542022;28;20118;-71
2021/11/30 13:15:39;;;;;;;7.57;3.05;;;;;;;9.86;100.00;100756.66;10540785;28;20028;-71
2021/11/30 13:20:41;;;;;;;9.37;4.10;;;;;;;9.93;100.00;100754.88;10542647;28;20379;-70
2021/11/30 13:25:42;;;;;;;20.80;5.45;;;;;;;9.96;100.00;100758.00;10542426;28;20036;-70
2021/11/30 13:30:43;;;;;;;6.40;5.13;;;;;;;9.93;100.00;100760.28;10542359;28;20301;-71
2021/11/30 13:35:50;;;;;;;16.52;5.80;;;;;;;9.96;100.00;100758.00;10541075;28;20081;-71
2021/11/30 13:40:55;;;;;;;12.38;6.30;;;;;;;10.00;100.00;100748.47;10508035;28;20035;-72
2021/11/30 13:45:57;;;;;;;15.65;4.95;;;;;;;9.98;100.00;100747.81;10541471;28;20094;-71
2021/11/30 13:51:02;;;;;;;8.30;4.93;;;;;;;9.94;100.00;100757.34;10541743;28;20056;-70
2021/11/30 13:56:22;;;;;;;11.85;4.55;;;;;;;9.97;100.00;100742.63;10540557;28;20116;-71
2021/11/30 14:01:33;;;;;;;6.50;3.92;;;;;;;9.94;100.00;100735.72;10541560;28;20028;-71
2021/11/30 14:06:33;;;;;;;14.77;4.15;;;;;;;10.02;100.00;100745.56;10539995;28;20376;-72
2021/11/30 14:11:34;;;;;;;8.98;4.90;;;;;;;10.05;100.00;100739.75;10539820;28;20035;-70
2021/11/30 14:16:45;;;;;;;11.23;6.00;;;;;;;10.14;100.00;100740.44;10540369;28;20028;-71
2021/11/30 14:22:00;;;;;;;10.73;3.42;;;;;;;10.16;100.00;100752.72;10539622;28;20376;-71
2021/11/30 14:27:11;;;;;;;9.90;3.90;;;;;;;10.19;100.00;100762.31;10540920;28;20028;-70
2021/11/30 14:32:15;;;;;;;6.22;4.40;;;;;;;10.19;100.00;100755.03;10542639;28;20043;-71
2021/11/30 14:37:20;;;;;;;5.63;4.05;;;;;;;10.19;100.00;100765.03;10539347;28;20028;-70
2021/11/30 14:42:31;;;;;;;13.48;4.90;;;;;;;10.17;100.00;100762.50;10539854;28;20043;-71
2021/11/30 14:47:31;;;;;;;8.18;5.30;;;;;;;10.17;100.00;100778.75;10538401;28;20379;-70
2021/11/30 14:52:41;;;;;;;16.95;4.65;;;;;;;10.09;100.00;100778.91;10540678;28;20059;-71
2021/11/30 14:57:42;;;;;;;18.13;5.57;;;;;;;10.12;100.00;100772.28;10523168;28;20085;-70
2021/11/30 15:02:42;;;;;;;8.57;6.22;;;;;;;10.15;100.00;100778.13;10537958;28;20361;-70
2021/11/30 15:07:42;;;;;;;27.27;5.28;;;;;;;10.14;100.00;100764.78;10538979;28;20063;-71
2021/11/30 15:12:43;;;;;;;16.40;4.85;;;;;;;10.14;100.00;100781.00;10538334;28;20470;-70
2021/11/30 15:17:44;;;;;;;9.07;4.68;;;;;;;10.14;100.00;100770.19;10520582;28;20043;-71
2021/11/30 15:22:44;;;;;;;12.30;4.43;;;;;;;10.15;100.00;100777.28;10539302;28;20036;-71
2021/11/30 15:27:45;;;;;;;14.05;4.32;;;;;;;10.14;100.00;100764.78;10540179;28;20403;-72
2021/11/30 15:32:45;;;;;;;23.45;5.57;;;;;;;10.16;100.00;100768.13;10539784;28;20032;-71
2021/11/30 15:37:48;;;;;;;9.57;4.28;;;;;;;10.14;100.00;100775.59;10542986;28;20047;-71
2021/11/30 15:42:49;;;;;;;15.80;6.60;;;;;;;10.17;100.00;100769.78;10547517;28;20059;-70
2021/11/30 15:47:49;;;;;;;17.27;4.45;;;;;;;10.16;100.00;100763.56;10546040;28;20178;-72
2021/11/30 15:52:50;;;;;;;12.32;4.97;;;;;;;10.16;100.00;100760.00;10529367;28;20065;-71
2021/11/30 15:57:50;;;;;;;7.80;4.28;;;;;;;10.17;100.00;100759.81;10545728;28;20035;-71
2021/11/30 16:02:50;;;;;;;15.52;5.32;;;;;;;10.16;100.00;100757.31;10545301;28;20451;-72
2021/11/30 16:07:51;;;;;;;7.60;5.05;;;;;;;10.19;100.00;100759.63;10544468;28;20471;-72
2021/11/30 16:12:51;;;;;;;10.90;5.43;;;;;;;10.19;100.00;100752.34;10544660;28;20032;-70
2021/11/30 16:17:53;;;;;;;10.48;5.15;;;;;;;10.20;100.00;100748.59;10546004;28;20105;-70
2021/11/30 16:22:55;;;;;;;8.25;4.47;;;;;;;10.19;100.00;100755.03;10544367;28;20127;-71
2021/11/30 16:27:55;;;;;;;23.08;5.22;;;;;;;10.23;100.00;100753.59;10545158;28;20032;-71
2021/11/30 16:32:56;;;;;;;17.02;6.43;;;;;;;10.27;100.00;100743.25;10545275;28;20047;-72
2021/11/30 16:37:57;;;;;;;13.77;4.47;;;;;;;10.24;100.00;100743.59;10542826;28;20039;-71
2021/11/30 16:42:57;;;;;;;9.65;4.97;;;;;;;10.23;100.00;100736.53;10546044;28;20039;-70
2021/11/30 16:47:58;;;;;;;10.65;4.65;;;;;;;10.21;100.00;100738.59;10551096;28;20483;-71
2021/11/30 16:52:58;;;;;;;14.85;5.10;;;;;;;10.20;100.00;100728.81;10547607;28;20052;-71
2021/11/30 16:57:58;;;;;;;18.00;4.50;;;;;;;10.22;100.00;100730.28;10542581;28;20111;-71
2021/11/30 17:02:59;;;;;;;12.90;5.05;;;;;;;10.14;100.00;100716.91;10544890;28;20036;-70
2021/11/30 17:07:59;;;;;;;9.32;4.68;;;;;;;10.12;100.00;100720.88;10543981;28;20074;-71
2021/11/30 17:13:00;;;;;;;6.68;4.65;;;;;;;10.08;100.00;100714.16;10543402;28;20110;-72
2021/11/30 17:18:02;;;;;;;12.73;4.78;;;;;;;10.03;100.00;100698.53;10542941;28;20044;-72
2021/11/30 17:23:05;;;;;;;7.95;3.97;;;;;;;10.00;100.00;100698.94;10544111;28;20039;-72
2021/11/30 17:28:06;;;;;;;5.97;4.32;;;;;;;9.96;100.00;100701.22;10541887;28;20039;-71
2021/11/30 17:33:06;;;;;;;9.77;5.05;;;;;;;9.90;100.00;100691.19;10542074;28;20044;-71
2021/11/30 17:38:07;;;;;;;7.72;5.45;;;;;;;9.84;100.00;100691.97;10542494;28;20122;-71
2021/11/30 17:43:07;;;;;;;8.48;4.57;;;;;;;9.87;100.00;100688.88;10543025;28;20035;-71
2021/11/30 17:48:08;;;;;;;12.93;6.95;;;;;;;9.95;100.00;100695.97;10540305;28;20059;-71
2021/11/30 17:53:08;;;;;;;17.65;5.80;;;;;;;9.97;100.00;100692.03;10540718;28;20446;-70
2021/11/30 17:58:09;;;;;;;19.70;6.97;;;;;;;9.95;100.00;100680.56;10540221;28;20178;-70
2021/11/30 18:03:09;;;;;;;7.88;5.10;;;;;;;9.91;100.00;100668.50;10541592;28;20043;-71
2021/11/30 18:08:09;;;;;;;12.05;5.53;;;;;;;9.95;100.00;100658.94;10539260;28;20389;-70
2021/11/30 18:13:11;;;;;;;10.40;6.63;;;;;;;9.94;100.00;100648.34;10541502;28;20032;-70
2021/11/30 18:18:11;;;;;;;5.70;5.10;;;;;;;9.95;100.00;100658.94;10539163;28;20028;-70
2021/11/30 18:23:12;;;;;;;29.38;7.43;;;;;;;9.98;100.00;100644.19;10542611;28;20038;-70
2021/11/30 18:28:12;;;;;;;23.13;5.60;;;;;;;9.87;100.00;100634.78;10541524;28;20064;-70
2021/11/30 18:33:13;;;;;;;6.93;6.32;;;;;;;9.83;100.00;100638.91;10540804;28;20606;-72
2021/11/30 18:38:13;;;;;;;9.93;6.32;;;;;;;9.86;100.00;100625.00;10538859;28;20494;-71
2021/11/30 18:43:13;;;;;;;11.40;6.88;;;;;;;9.87;100.00;100620.41;10540367;28;20043;-72
2021/11/30 18:48:14;;;;;;;12.23;7.53;;;;;;;9.92;100.00;100615.22;10538990;28;20039;-71
2021/11/30 18:53:14;;;;;;;22.08;8.15;;;;;;;9.90;100.00;100618.16;10542127;28;20044;-71
2021/11/30 18:58:15;;;;;;;23.33;9.13;;;;;;;9.90;100.00;100620.03;10539256;28;20028;-71
2021/11/30 19:03:15;;;;;;;19.10;9.65;;;;;;;9.91;100.00;100621.69;10541083;28;20156;-71
2021/11/30 19:08:17;;;;;;;19.30;7.93;;;;;;;9.79;100.00;100613.28;10506014;28;20024;-71
2021/11/30 19:13:18;;;;;;;26.30;9.63;;;;;;;9.72;100.00;100613.25;10538240;28;20097;-70
2021/11/30 19:18:19;;;;;;;11.70;8.18;;;;;;;9.67;100.00;100614.91;10538155;28;20437;-71
2021/11/30 19:23:19;;;;;;;16.85;9.90;;;;;;;9.65;100.00;100608.84;10537140;28;20031;-72
2021/11/30 19:28:19;;;;;;;25.67;9.05;;;;;;;9.66;100.00;100605.94;10539527;28;20414;-72
2021/11/30 19:33:20;;;;;;;23.80;9.02;;;;;;;9.63;100.00;100579.28;10538679;28;20039;-73
2021/11/30 19:38:21;;;;;;;24.85;9.15;;;;;;;9.64;100.00;100583.69;10520423;28;20032;-71
2021/11/30 19:43:21;;;;;;;13.25;9.02;;;;;;;9.66;100.00;100576.19;10537995;28;20024;-71
2021/11/30 19:48:24;;;;;;;23.10;9.45;;;;;;;9.67;100.00;100563.53;10538289;28;20035;-71
2021/11/30 19:53:25;;;;;;;31.48;8.45;;;;;;;9.73;100.00;100551.88;10537865;28;20060;-71
2021/11/30 19:58:25;;;;;;;17.08;8.75;;;;;;;9.72;100.00;100550.22;10520179;28;20052;-71
2021/11/30 20:08:45;;;;;;;25.92;7.82;;;;;;;9.68;100.00;100521.94;10537015;28;20403;-70
2021/11/30 20:13:45;;;;;;;27.73;9.50;;;;;;;9.69;100.00;100524.41;10519931;28;20036;-72
2021/11/30 20:18:46;;;;;;;15.98;6.20;;;;;;;9.68;100.00;100516.53;10538228;28;20119;-71
2021/11/30 20:23:46;;;;;;;8.85;6.45;;;;;;;9.69;100.00;100512.78;10542454;28;20529;-71
2021/11/30 20:28:47;;;;;;;11.77;6.95;;;;;;;9.71;100.00;100495.31;10545748;28;20475;-73
2021/11/30 20:33:50;;;;;;;17.48;5.93;;;;;;;9.69;100.00;100473.06;10543859;28;20492;-72
2021/11/30 20:39:00;;;;;;;31.95;8.20;;;;;;;9.73;100.00;100478.88;10545231;28;20356;-72
2021/11/30 20:44:01;;;;;;;20.50;7.30;;;;;;;9.72;100.00;100463.72;10544049;28;20036;-71
2021/11/30 20:49:07;;;;;;;24.42;7.72;;;;;;;9.74;100.00;100456.25;10544545;28;20145;-71
2021/11/30 20:54:09;;;;;;;37.17;7.43;;;;;;;9.75;100.00;100445.22;10543688;28;20063;-70
2021/11/30 20:59:11;;;;;;;12.05;6.82;;;;;;;9.77;100.00;100442.31;10544322;28;20523;-71
2021/11/30 21:04:11;;;;;;;9.10;5.50;;;;;;;9.77;100.00;100420.69;10542979;28;20472;-71
2021/11/30 21:09:12;;;;;;;24.17;5.70;;;;;;;9.78;100.00;100420.47;10543970;28;20067;-71
2021/11/30 21:14:12;;;;;;;15.35;5.78;;;;;;;9.82;100.00;100407.38;10542884;28;20039;-71
2021/11/30 21:19:13;;;;;;;17.27;5.78;;;;;;;9.83;100.00;100386.56;10548443;28;20089;-70
2021/11/30 21:24:13;;;;;;;23.98;6.60;;;;;;;9.84;100.00;100375.56;10542539;28;20060;-72
2021/11/30 21:29:15;;;;;;;31.95;7.28;;;;;;;9.85;100.00;100360.97;10542890;28;20040;-71
2021/11/30 21:34:15;;;;;;;8.50;3.92;;;;;;;9.87;100.00;100360.78;10541290;28;20036;-72
2021/11/30 21:39:15;;;;;;;20.02;5.55;;;;;;;9.89;100.00;100339.75;10543593;28;20043;-71
2021/11/30 21:44:16;;;;;;;10.52;6.72;;;;;;;9.91;100.00;100326.88;10543841;28;20028;-70
2021/11/30 21:49:18;;;;;;;13.88;4.55;;;;;;;9.89;100.00;100310.88;10544669;28;20066;-71
2021/11/30 21:54:18;;;;;;;15.63;5.32;;;;;;;9.86;100.00;100313.13;10543908;28;20135;-71
2021/11/30 21:59:19;;;;;;;16.33;6.22;;;;;;;9.82;100.00;100287.56;10541854;28;20379;-70
2021/11/30 22:04:20;;;;;;;8.63;4.90;;;;;;;9.83;100.00;100298.19;10543231;28;20036;-71
2021/11/30 22:09:20;;;;;;;16.63;6.75;;;;;;;9.84;100.00;100275.50;10541155;28;20464;-70
2021/11/30 22:14:21;;;;;;;19.50;6.32;;;;;;;9.79;100.00;100253.63;10542284;28;20042;-70
2021/11/30 22:19:21;;;;;;;14.68;5.90;;;;;;;9.84;100.00;100239.50;10540362;28;20032;-71
2021/11/30 22:24:22;;;;;;;16.88;5.47;;;;;;;9.92;100.00;100231.16;10540261;28;20098;-71
2021/11/30 22:29:22;;;;;;;28.73;7.28;;;;;;;9.93;100.00;100222.84;10541248;28;20059;-71
2021/11/30 22:34:22;;;;;;;9.63;4.47;;;;;;;9.98;100.00;100217.63;10540875;28;20035;-70
2021/11/30 22:39:24;;;;;;;9.27;4.88;;;;;;;9.98;100.00;100206.00;10541429;28;20039;-71
2021/11/30 22:44:25;;;;;;;13.40;3.78;;;;;;;10.05;100.00;100187.91;10540401;28;20064;-71
2021/11/30 22:49:25;;;;;;;8.57;1.98;;;;;;;10.07;100.00;100176.84;10538639;28;20040;-71
2021/11/30 22:54:25;;;;;;;9.80;3.53;;;;;;;10.16;100.00;100165.59;10539510;28;20340;-71
2021/11/30 22:59:26;;;;;;;10.45;3.15;;;;;;;10.12;100.00;100161.66;10539106;28;20097;-72
2021/11/30 23:04:26;;;;;;;14.05;3.97;;;;;;;10.01;100.00;100138.78;10539673;28;20117;-72
2021/11/30 23:09:27;;;;;;;6.55;2.40;;;;;;;9.92;100.00;100134.66;10540743;28;20032;-71